Aviation Digital Data Service (ADDS)

Output produced by METARs form (0757 UTC 28 May 2015)
found at http://aviationweather.gov/adds/metars/
 
KDEN 280655Z 2807/2912 26007KT P6SM SCT080 SCT150 
     FM280800 21008KT P6SM FEW100 SCT200 
     FM281500 VRB05KT P6SM SCT080 BKN150 
     FM282100 11008KT P6SM SCT050 BKN090 
     TEMPO 2821/2901 VRB15G30KT -TSRA BKN070CB 
     FM290300 06008KT P6SM SCT070 BKN120 
     FM290600 15007KT P6SM VCSH SCT070 BKN120